createdAt,value
2022-08-17T00:01:27.177Z,76.56
2022-08-17T00:03:55.275Z,76.69
2022-08-17T00:06:30.857Z,76.60
2022-08-17T00:09:02.253Z,76.61
2022-08-17T00:11:37.748Z,76.72
2022-08-17T00:14:16.262Z,76.82
2022-08-17T00:16:55.383Z,76.97
2022-08-17T00:19:23.114Z,77.02
2022-08-17T00:22:32.649Z,77.02
2022-08-17T00:24:25.004Z,77.25
2022-08-17T00:26:52.880Z,77.39
2022-08-17T00:29:20.626Z,77.62
2022-08-17T00:31:49.545Z,77.75
2022-08-17T00:34:17.693Z,77.80
2022-08-17T00:36:45.552Z,77.96
2022-08-17T00:39:13.240Z,77.84
2022-08-17T00:41:42.563Z,77.79
2022-08-17T00:44:11.706Z,77.59
2022-08-17T00:46:42.322Z,77.52
2022-08-17T00:49:12.880Z,77.35
2022-08-17T00:51:56.946Z,77.25
2022-08-17T00:54:29.152Z,77.15
2022-08-17T00:57:08.331Z,77.11
2022-08-17T00:59:44.373Z,77.06
2022-08-17T01:02:15.955Z,76.88
2022-08-17T01:04:46.427Z,76.94
2022-08-17T01:07:15.425Z,76.98
2022-08-17T01:09:44.060Z,76.99
2022-08-17T01:12:12.314Z,77.05
2022-08-17T01:14:41.105Z,77.11
2022-08-17T01:17:09.679Z,77.17
2022-08-17T01:19:41.370Z,77.35
2022-08-17T01:22:16.095Z,77.47
2022-08-17T01:24:49.203Z,77.53
2022-08-17T01:27:18.512Z,77.55
2022-08-17T01:29:52.549Z,77.56
2022-08-17T01:32:20.181Z,77.53
2022-08-17T01:34:50.416Z,77.33
2022-08-17T01:37:20.973Z,77.26
2022-08-17T01:39:53.116Z,77.12
2022-08-17T01:42:32.397Z,77.01
2022-08-17T01:45:11.080Z,76.97
2022-08-17T01:47:38.760Z,77.09
2022-08-17T01:50:15.458Z,77.15
2022-08-17T01:52:45.670Z,77.27
2022-08-17T01:55:17.056Z,77.18
2022-08-17T01:57:45.110Z,77.27
2022-08-17T02:00:14.193Z,77.31
2022-08-17T02:02:44.017Z,77.34
2022-08-17T02:05:12.129Z,77.56
2022-08-17T02:07:59.892Z,77.73
2022-08-17T02:10:20.295Z,77.86
2022-08-17T02:12:50.188Z,78.02
2022-08-17T02:15:25.578Z,78.29
2022-08-17T02:17:57.451Z,78.41
2022-08-17T02:20:41.934Z,78.57
2022-08-17T02:22:58.413Z,78.79
2022-08-17T02:25:34.317Z,78.93
2022-08-17T02:28:08.672Z,78.96
2022-08-17T02:31:01.410Z,78.91
2022-08-17T02:33:17.226Z,78.93
2022-08-17T02:35:52.947Z,78.71
2022-08-17T02:38:20.695Z,78.56
2022-08-17T02:40:48.688Z,78.46
2022-08-17T02:43:17.779Z,78.36
2022-08-17T02:45:45.423Z,78.33
2022-08-17T02:48:13.219Z,78.40
2022-08-17T02:50:40.847Z,78.33
2022-08-17T02:53:08.468Z,78.29
2022-08-17T02:55:39.836Z,78.27
2022-08-17T02:58:10.114Z,78.38
2022-08-17T03:00:42.312Z,78.39
2022-08-17T03:03:13.086Z,78.49
2022-08-17T03:05:41.358Z,78.38
2022-08-17T03:08:12.971Z,78.42
2022-08-17T03:10:39.207Z,78.47
2022-08-17T03:13:06.847Z,78.48
2022-08-17T03:15:35.344Z,78.52
2022-08-17T03:18:03.405Z,78.38
2022-08-17T03:20:32.542Z,78.16
2022-08-17T03:23:02.005Z,77.94
2022-08-17T03:25:35.059Z,77.58
2022-08-17T03:28:04.864Z,77.45
2022-08-17T03:30:33.306Z,77.28
2022-08-17T03:33:05.903Z,77.22
2022-08-17T03:35:35.999Z,77.36
2022-08-17T03:38:04.512Z,77.50
2022-08-17T03:40:55.500Z,77.57
2022-08-17T03:43:09.142Z,77.51
2022-08-17T03:45:56.143Z,77.46
2022-08-17T03:48:42.487Z,77.46
2022-08-17T03:51:34.187Z,77.66
2022-08-17T03:54:20.521Z,77.78
2022-08-17T03:57:05.212Z,77.97
2022-08-17T03:59:34.356Z,78.23
2022-08-17T04:02:11.024Z,78.36
2022-08-17T04:04:39.344Z,78.42
2022-08-17T04:07:07.934Z,78.49
2022-08-17T04:09:36.068Z,78.40
2022-08-17T04:12:05.222Z,78.37
2022-08-17T04:14:36.017Z,78.34
2022-08-17T04:17:05.865Z,78.28
2022-08-17T04:19:33.841Z,78.22
2022-08-17T04:22:01.568Z,78.19
2022-08-17T04:24:29.362Z,78.25
2022-08-17T04:26:56.983Z,78.25
2022-08-17T04:29:25.703Z,78.24
2022-08-17T04:31:55.293Z,78.27
2022-08-17T04:34:24.371Z,78.16
2022-08-17T04:36:52.479Z,78.09
2022-08-17T04:39:20.037Z,78.15
2022-08-17T04:42:06.003Z,78.34
2022-08-17T04:44:37.397Z,78.52
2022-08-17T04:47:06.785Z,78.72
2022-08-17T04:49:37.100Z,78.86
2022-08-17T04:52:05.168Z,79.03
2022-08-17T04:54:32.950Z,79.18
2022-08-17T04:57:00.692Z,79.28
2022-08-17T04:59:28.296Z,79.30
2022-08-17T05:01:55.965Z,79.16
2022-08-17T05:04:34.229Z,79.09
2022-08-17T05:06:55.269Z,79.01
2022-08-17T05:09:22.959Z,78.80
2022-08-17T05:11:52.441Z,78.59
2022-08-17T05:14:22.064Z,78.58
2022-08-17T05:16:51.556Z,78.42
2022-08-17T05:19:19.225Z,78.13
2022-08-17T05:21:46.947Z,77.92
2022-08-17T05:24:38.488Z,77.80
2022-08-17T05:26:44.240Z,77.66
2022-08-17T05:29:11.869Z,77.68
2022-08-17T05:31:39.648Z,77.74
2022-08-17T05:34:07.250Z,77.92
2022-08-17T05:36:43.364Z,77.91
2022-08-17T05:39:04.605Z,77.89
2022-08-17T05:41:32.054Z,77.87
2022-08-17T05:43:59.564Z,77.89
2022-08-17T05:46:34.533Z,78.07
2022-08-17T05:49:07.661Z,78.17
2022-08-17T05:52:10.098Z,78.24
2022-08-17T05:54:58.444Z,78.31
2022-08-17T05:57:53.639Z,78.50
2022-08-17T06:00:26.487Z,78.39
2022-08-17T06:03:35.590Z,78.50
2022-08-17T06:06:25.116Z,78.49
2022-08-17T06:09:07.427Z,78.61
2022-08-17T06:11:40.614Z,78.69
2022-08-17T06:14:28.819Z,78.18
2022-08-17T06:17:08.066Z,77.89
2022-08-17T06:19:56.069Z,77.68
2022-08-17T06:22:32.647Z,77.44
2022-08-17T06:25:20.761Z,77.46
2022-08-17T06:28:05.189Z,77.85
2022-08-17T06:30:58.296Z,78.21
2022-08-17T06:33:13.364Z,78.17
2022-08-17T06:35:55.465Z,77.87
2022-08-17T06:38:49.416Z,78.21
2022-08-17T06:41:52.072Z,77.44
2022-08-17T06:44:43.312Z,77.33
2022-08-17T06:47:08.983Z,77.34
2022-08-17T06:49:55.269Z,76.85
2022-08-17T06:52:45.438Z,76.74
2022-08-17T06:55:08.883Z,76.34
2022-08-17T06:57:46.774Z,75.59
2022-08-17T07:00:22.723Z,74.93
2022-08-17T07:03:15.065Z,75.41
2022-08-17T07:05:51.253Z,75.41
2022-08-17T07:08:37.478Z,74.97
2022-08-17T07:11:12.930Z,75.02
2022-08-17T07:13:56.978Z,74.44
2022-08-17T07:16:40.675Z,73.91
2022-08-17T07:19:11.028Z,73.87
2022-08-17T07:21:59.170Z,73.24
2022-08-17T07:24:44.758Z,72.91
2022-08-17T07:27:20.806Z,73.15
2022-08-17T07:30:08.131Z,71.86
2022-08-17T07:32:47.920Z,71.31
2022-08-17T07:35:40.783Z,70.71
2022-08-17T07:38:25.185Z,71.12
2022-08-17T07:41:00.195Z,71.33
2022-08-17T07:43:36.189Z,70.81
2022-08-17T07:46:44.980Z,70.22
2022-08-17T07:49:18.518Z,70.79
2022-08-17T07:51:51.443Z,70.72
2022-08-17T07:54:36.753Z,70.12
2022-08-17T07:57:25.360Z,69.49
2022-08-17T08:00:16.471Z,67.56
2022-08-17T08:02:48.928Z,67.60
2022-08-17T08:05:50.420Z,67.18
2022-08-17T08:08:04.156Z,66.10
2022-08-17T08:10:42.532Z,67.13
2022-08-17T08:13:23.113Z,66.54
2022-08-17T08:15:58.874Z,66.71
2022-08-17T08:18:53.890Z,65.67
2022-08-17T08:21:11.168Z,64.14
2022-08-17T08:23:42.452Z,65.87
2022-08-17T08:26:34.716Z,65.72
2022-08-17T08:29:22.106Z,66.04
2022-08-17T08:32:36.748Z,66.71
2022-08-17T08:35:12.847Z,66.84
2022-08-17T08:37:55.167Z,66.90
2022-08-17T08:40:40.459Z,66.49
2022-08-17T08:44:00.414Z,66.41
2022-08-17T08:46:40.123Z,66.75
2022-08-17T08:49:59.000Z,66.99
2022-08-17T08:52:01.371Z,67.12
2022-08-17T08:54:46.678Z,66.46
2022-08-17T08:57:30.757Z,65.97
2022-08-17T09:00:11.169Z,64.96
2022-08-17T09:03:03.658Z,64.71
2022-08-17T09:05:48.852Z,64.98
2022-08-17T09:08:27.847Z,65.32
2022-08-17T09:11:10.308Z,65.12
2022-08-17T09:14:01.161Z,64.75
2022-08-17T09:16:40.983Z,64.87
2022-08-17T09:19:20.033Z,64.56
2022-08-17T09:21:55.723Z,63.54
2022-08-17T09:24:37.299Z,64.12
2022-08-17T09:27:18.483Z,62.95
2022-08-17T09:29:55.989Z,62.01
2022-08-17T09:32:41.194Z,60.46
2022-08-17T09:35:32.765Z,61.32
2022-08-17T09:38:19.444Z,60.38
2022-08-17T09:41:15.470Z,61.04
2022-08-17T09:44:00.431Z,61.89
2022-08-17T09:46:38.905Z,61.88
2022-08-17T09:49:32.509Z,61.26
2022-08-17T09:52:09.651Z,61.84
2022-08-17T09:54:40.866Z,60.75
2022-08-17T09:57:30.332Z,61.70
2022-08-17T10:00:11.237Z,61.31
2022-08-17T10:03:00.059Z,62.07
2022-08-17T10:06:02.244Z,62.24
2022-08-17T10:09:01.085Z,62.57
2022-08-17T10:12:10.821Z,61.88
2022-08-17T10:14:56.136Z,61.88
2022-08-17T10:17:55.921Z,62.06
2022-08-17T10:20:29.713Z,60.88
2022-08-17T10:23:21.578Z,61.00
2022-08-17T10:26:15.352Z,61.22
2022-08-17T10:28:53.615Z,61.69
2022-08-17T10:31:35.995Z,61.81
2022-08-17T10:34:38.741Z,61.37
2022-08-17T10:37:48.369Z,60.45
2022-08-17T10:40:27.293Z,59.80
2022-08-17T10:43:00.523Z,60.24
2022-08-17T10:46:13.369Z,60.30
2022-08-17T10:48:38.419Z,60.35
2022-08-17T10:51:13.918Z,60.46
2022-08-17T10:53:48.059Z,60.46
2022-08-17T10:56:22.320Z,60.37
2022-08-17T10:58:56.850Z,59.78
2022-08-17T11:01:41.196Z,59.76
2022-08-17T11:04:21.005Z,60.01
2022-08-17T11:07:03.442Z,59.88
2022-08-17T11:09:39.469Z,60.38
2022-08-17T11:13:00.785Z,60.69
2022-08-17T11:15:46.646Z,60.52
2022-08-17T11:18:31.531Z,60.93
2022-08-17T11:21:31.338Z,60.70
2022-08-17T11:24:38.286Z,60.71
2022-08-17T11:27:26.192Z,60.79
2022-08-17T11:30:02.246Z,59.80
2022-08-17T11:32:54.720Z,59.96
2022-08-17T11:35:29.261Z,59.98
2022-08-17T11:38:16.849Z,55.92
2022-08-17T11:41:11.530Z,56.91
2022-08-17T11:44:05.538Z,55.79
2022-08-17T11:47:18.252Z,56.21
2022-08-17T11:50:40.401Z,57.10
2022-08-17T11:53:38.021Z,57.34
2022-08-17T11:56:10.946Z,55.18
2022-08-17T11:58:45.559Z,55.78
2022-08-17T12:01:28.788Z,55.78
2022-08-17T12:04:18.322Z,56.17
2022-08-17T12:06:54.386Z,54.07
2022-08-17T12:09:27.508Z,55.27
2022-08-17T12:12:12.500Z,54.24
2022-08-17T12:15:08.469Z,52.62
2022-08-17T12:17:11.690Z,53.06
2022-08-17T12:19:42.706Z,51.79
2022-08-17T12:22:32.841Z,51.76
2022-08-17T12:25:15.653Z,51.66
2022-08-17T12:28:05.591Z,50.36
2022-08-17T12:30:21.911Z,50.52
2022-08-17T12:32:50.448Z,51.99
2022-08-17T12:35:35.415Z,52.25
2022-08-17T12:38:31.833Z,51.75
2022-08-17T12:40:37.415Z,50.95
2022-08-17T12:43:10.910Z,50.19
2022-08-17T12:45:39.717Z,49.98
2022-08-17T12:48:14.950Z,51.17
2022-08-17T12:50:45.351Z,50.90
2022-08-17T12:53:20.658Z,50.29
2022-08-17T12:55:50.286Z,49.70
2022-08-17T12:58:26.167Z,50.08
2022-08-17T13:01:11.906Z,50.41
2022-08-17T13:03:50.956Z,49.94
2022-08-17T13:06:34.635Z,50.24
2022-08-17T13:09:17.035Z,49.17
2022-08-17T13:11:54.672Z,48.41
2022-08-17T13:14:22.613Z,49.83
2022-08-17T13:16:59.012Z,50.36
2022-08-17T13:19:39.945Z,50.27
2022-08-17T13:22:01.554Z,50.85
2022-08-17T13:24:38.578Z,49.06
2022-08-17T13:27:08.674Z,49.77
2022-08-17T13:29:52.801Z,50.24
2022-08-17T13:32:39.889Z,48.91
2022-08-17T13:35:40.089Z,47.60
2022-08-17T13:38:11.293Z,48.81
2022-08-17T13:40:50.003Z,49.90
2022-08-17T13:43:44.724Z,49.86
2022-08-17T13:46:23.819Z,50.82
2022-08-17T13:49:05.733Z,51.20
2022-08-17T13:51:44.133Z,51.46
2022-08-17T13:54:36.841Z,52.15
2022-08-17T13:57:18.598Z,53.17
2022-08-17T13:59:54.673Z,52.89
2022-08-17T14:02:20.485Z,53.07
2022-08-17T14:04:48.374Z,52.67
2022-08-17T14:07:21.372Z,52.33
2022-08-17T14:09:54.474Z,50.87
2022-08-17T14:12:26.252Z,51.40
2022-08-17T14:14:55.901Z,52.46
2022-08-17T14:17:24.377Z,52.95
2022-08-17T14:19:52.826Z,53.24
2022-08-17T14:22:31.184Z,53.84
2022-08-17T14:25:01.245Z,54.35
2022-08-17T14:27:32.521Z,54.91
2022-08-17T14:30:01.691Z,55.15
2022-08-17T14:32:36.292Z,55.53
2022-08-17T14:35:05.833Z,55.58
2022-08-17T14:37:33.997Z,56.12
2022-08-17T14:40:05.997Z,56.49
2022-08-17T14:42:37.072Z,56.70
2022-08-17T14:45:29.607Z,56.98
2022-08-17T14:47:41.252Z,57.42
2022-08-17T14:50:13.164Z,58.07
2022-08-17T14:52:42.874Z,58.14
2022-08-17T14:55:12.488Z,58.03
2022-08-17T14:57:41.762Z,58.20
2022-08-17T15:00:10.320Z,58.22
2022-08-17T15:02:53.477Z,58.76
2022-08-17T15:05:24.740Z,58.04
2022-08-17T15:07:53.070Z,57.58
2022-08-17T15:10:21.337Z,57.56
2022-08-17T15:12:49.141Z,57.83
2022-08-17T15:15:18.020Z,57.50
2022-08-17T15:17:46.261Z,57.44
2022-08-17T15:20:20.197Z,57.80
2022-08-17T15:22:49.174Z,57.76
2022-08-17T15:25:19.090Z,57.56
2022-08-17T15:27:46.923Z,57.37
2022-08-17T15:30:15.016Z,57.29
2022-08-17T15:32:51.405Z,57.38
2022-08-17T15:35:14.081Z,57.64
2022-08-17T15:37:41.888Z,57.86
2022-08-17T15:40:12.321Z,57.97
2022-08-17T15:42:40.766Z,58.05
2022-08-17T15:45:12.854Z,58.21
2022-08-17T15:47:42.104Z,58.48
2022-08-17T15:50:10.628Z,59.25
2022-08-17T15:52:39.927Z,59.72
2022-08-17T15:55:12.640Z,60.08
2022-08-17T15:57:40.854Z,60.20
2022-08-17T16:00:10.151Z,60.50
2022-08-17T16:03:13.776Z,60.61
2022-08-17T16:05:16.007Z,60.94
2022-08-17T16:07:45.395Z,60.78
2022-08-17T16:10:18.228Z,61.63
2022-08-17T16:12:47.399Z,61.77
2022-08-17T16:15:16.803Z,62.12
2022-08-17T16:17:44.791Z,62.63
2022-08-17T16:20:19.960Z,63.01
2022-08-17T16:22:46.039Z,64.19
2022-08-17T16:25:21.445Z,65.28
2022-08-17T16:27:53.510Z,65.93
2022-08-17T16:30:24.728Z,65.55
2022-08-17T16:32:54.609Z,66.53
2022-08-17T16:35:26.121Z,66.45
2022-08-17T16:37:56.605Z,67.03
2022-08-17T16:40:35.647Z,67.32
2022-08-17T16:43:01.106Z,66.97
2022-08-17T16:45:32.294Z,67.05
2022-08-17T16:48:01.101Z,66.91
2022-08-17T16:50:28.698Z,67.00
2022-08-17T16:53:06.752Z,66.95
2022-08-17T16:55:35.173Z,66.80
2022-08-17T16:58:05.837Z,66.70
2022-08-17T17:00:34.388Z,66.72
2022-08-17T17:03:20.523Z,66.54
2022-08-17T17:06:18.898Z,66.56
2022-08-17T17:08:59.118Z,66.43
2022-08-17T17:11:50.428Z,66.21
2022-08-17T17:14:27.936Z,66.18
2022-08-17T17:17:25.465Z,66.14
2022-08-17T17:20:16.158Z,66.08
2022-08-17T17:23:11.283Z,66.02
2022-08-17T17:25:54.177Z,65.92
2022-08-17T17:28:39.996Z,65.78
2022-08-17T17:31:25.460Z,65.68
2022-08-17T17:34:00.935Z,65.61
2022-08-17T17:36:39.792Z,65.63
2022-08-17T17:39:15.481Z,65.73
2022-08-17T17:41:56.820Z,65.91
2022-08-17T17:44:41.471Z,66.25
2022-08-17T17:47:09.692Z,66.70
2022-08-17T17:49:44.452Z,66.83
2022-08-17T17:52:46.657Z,67.25
2022-08-17T17:55:25.003Z,67.48
2022-08-17T17:58:23.768Z,67.83
2022-08-17T18:01:11.731Z,68.68
2022-08-17T18:03:50.683Z,69.30
2022-08-17T18:06:49.924Z,69.75
2022-08-17T18:09:33.849Z,70.14
2022-08-17T18:12:16.156Z,70.16
2022-08-17T18:15:16.389Z,69.99
2022-08-17T18:18:17.651Z,69.93
2022-08-17T18:20:53.687Z,69.79
2022-08-17T18:23:27.722Z,69.17
2022-08-17T18:25:53.946Z,68.85
2022-08-17T18:28:39.953Z,68.86
2022-08-17T18:31:20.439Z,69.05
2022-08-17T18:33:59.332Z,69.16
2022-08-17T18:36:32.099Z,69.48
2022-08-17T18:39:27.879Z,69.55
2022-08-17T18:41:59.096Z,69.57
2022-08-17T18:44:37.779Z,69.60
2022-08-17T18:47:16.207Z,69.70
2022-08-17T18:49:57.905Z,69.87
2022-08-17T18:52:32.442Z,70.03
2022-08-17T18:55:13.636Z,70.25
2022-08-17T18:57:55.470Z,70.54
2022-08-17T19:00:42.465Z,70.76
2022-08-17T19:03:24.699Z,70.99
2022-08-17T19:05:57.273Z,71.17
2022-08-17T19:08:33.018Z,71.31
2022-08-17T19:11:29.134Z,71.40
2022-08-17T19:14:12.846Z,71.41
2022-08-17T19:16:51.681Z,71.37
2022-08-17T19:19:27.285Z,71.37
2022-08-17T19:22:00.201Z,71.43
2022-08-17T19:24:31.362Z,71.43
2022-08-17T19:27:12.599Z,71.41
2022-08-17T19:30:08.053Z,71.51
2022-08-17T19:32:35.902Z,71.46
2022-08-17T19:35:07.829Z,71.51
2022-08-17T19:38:04.351Z,71.68
2022-08-17T19:40:58.657Z,71.88
2022-08-17T19:43:38.028Z,72.09
2022-08-17T19:46:43.139Z,72.40
2022-08-17T19:49:33.438Z,72.74
2022-08-17T19:52:16.928Z,72.98
2022-08-17T19:54:54.927Z,73.24
2022-08-17T19:57:36.939Z,73.45
2022-08-17T20:00:17.071Z,73.58
2022-08-17T20:03:06.322Z,73.58
2022-08-17T20:06:10.831Z,73.73
2022-08-17T20:08:22.681Z,73.71
2022-08-17T20:11:01.360Z,73.67
2022-08-17T20:13:37.075Z,73.52
2022-08-17T20:16:05.796Z,73.29
2022-08-17T20:18:48.138Z,73.16
2022-08-17T20:21:28.394Z,73.16
2022-08-17T20:24:30.296Z,73.10
2022-08-17T20:27:20.020Z,73.16
2022-08-17T20:30:09.829Z,73.13
2022-08-17T20:32:54.935Z,73.22
2022-08-17T20:35:28.159Z,73.29
2022-08-17T20:38:10.468Z,73.42
2022-08-17T20:40:56.920Z,73.54
2022-08-17T20:43:38.890Z,73.68
2022-08-17T20:46:37.778Z,74.04
2022-08-17T20:49:26.586Z,74.48
2022-08-17T20:52:07.336Z,74.83
2022-08-17T20:54:49.278Z,75.11
2022-08-17T20:57:37.712Z,75.06
2022-08-17T21:00:31.598Z,75.10
2022-08-17T21:03:26.146Z,75.13
2022-08-17T21:06:09.409Z,75.15
2022-08-17T21:08:45.887Z,75.12
2022-08-17T21:12:00.062Z,75.14
2022-08-17T21:14:16.939Z,75.05
2022-08-17T21:17:07.017Z,74.94
2022-08-17T21:20:17.089Z,74.96
2022-08-17T21:23:33.109Z,74.89
2022-08-17T21:26:29.649Z,74.84
2022-08-17T21:29:31.705Z,74.77
2022-08-17T21:32:05.391Z,74.72
2022-08-17T21:34:43.252Z,74.73
2022-08-17T21:37:30.971Z,74.86
2022-08-17T21:40:25.234Z,74.99
2022-08-17T21:43:00.977Z,75.14
2022-08-17T21:45:38.439Z,75.32
2022-08-17T21:48:17.260Z,75.26
2022-08-17T21:51:02.403Z,75.33
2022-08-17T21:53:53.242Z,75.18
2022-08-17T21:56:34.486Z,75.16
2022-08-17T21:59:10.194Z,75.01
2022-08-17T22:01:40.597Z,74.91
2022-08-17T22:04:26.153Z,74.75
2022-08-17T22:06:57.106Z,74.47
2022-08-17T22:09:32.866Z,74.36
2022-08-17T22:12:11.342Z,74.34
2022-08-17T22:14:53.370Z,74.50
2022-08-17T22:17:20.542Z,74.68
2022-08-17T22:19:56.240Z,74.74
2022-08-17T22:22:34.813Z,74.79
2022-08-17T22:25:07.060Z,74.82
2022-08-17T22:27:55.917Z,74.98
2022-08-17T22:30:40.309Z,75.03
2022-08-17T22:33:45.065Z,75.09
2022-08-17T22:36:34.590Z,75.20
2022-08-17T22:39:14.190Z,75.40
2022-08-17T22:41:59.610Z,75.54
2022-08-17T22:44:47.529Z,75.48
2022-08-17T22:47:26.783Z,75.42
2022-08-17T22:50:00.886Z,75.17
2022-08-17T22:53:02.257Z,75.01
2022-08-17T22:55:52.063Z,74.89
2022-08-17T22:58:41.907Z,74.76
2022-08-17T23:01:32.166Z,74.79
2022-08-17T23:04:06.629Z,74.82
2022-08-17T23:06:37.033Z,74.87
2022-08-17T23:09:06.874Z,74.89
2022-08-17T23:11:49.568Z,74.92
2022-08-17T23:14:11.888Z,75.02
2022-08-17T23:16:42.729Z,75.21
2022-08-17T23:19:17.498Z,75.46
2022-08-17T23:21:45.485Z,75.62
2022-08-17T23:24:21.294Z,75.74
2022-08-17T23:26:48.935Z,75.89
2022-08-17T23:29:16.855Z,76.04
2022-08-17T23:31:44.672Z,76.06
2022-08-17T23:34:14.662Z,76.02
2022-08-17T23:36:44.286Z,75.92
2022-08-17T23:39:12.002Z,75.81
2022-08-17T23:41:39.817Z,75.53
2022-08-17T23:44:07.640Z,75.34
2022-08-17T23:46:35.625Z,75.30
2022-08-17T23:49:03.917Z,75.17
2022-08-17T23:51:35.892Z,75.09
2022-08-17T23:54:10.515Z,74.90
2022-08-17T23:56:40.220Z,74.83
2022-08-17T23:59:07.983Z,74.83
